sensor_id;sensor_type;location;lat;lon;timestamp;P1;durP1;ratioP1;P2;durP2;ratioP2
38557;SDS011;24333;42.626;23.308;2023-04-25T07:23:38;14.70;;;6.57;;
38557;SDS011;24333;42.626;23.308;2023-04-25T07:26:29;11.75;;;6.57;;
38557;SDS011;24333;42.626;23.308;2023-04-25T07:28:54;15.68;;;6.72;;
38557;SDS011;24333;42.626;23.308;2023-04-25T07:31:20;14.68;;;6.25;;
38557;SDS011;24333;42.626;23.308;2023-04-25T07:33:46;11.68;;;6.15;;
38557;SDS011;24333;42.626;23.308;2023-04-25T07:36:12;12.48;;;5.95;;
38557;SDS011;24333;42.626;23.308;2023-04-25T07:38:38;13.07;;;6.10;;
38557;SDS011;24333;42.626;23.308;2023-04-25T07:41:04;12.07;;;5.35;;
38557;SDS011;24333;42.626;23.308;2023-04-25T07:43:30;15.50;;;5.63;;
38557;SDS011;24333;42.626;23.308;2023-04-25T07:45:56;11.93;;;6.38;;
38557;SDS011;24333;42.626;23.308;2023-04-25T07:48:22;12.73;;;5.72;;
38557;SDS011;24333;42.626;23.308;2023-04-25T07:50:48;11.00;;;5.85;;
38557;SDS011;24333;42.626;23.308;2023-04-25T07:53:13;11.68;;;5.65;;
38557;SDS011;24333;42.626;23.308;2023-04-25T07:55:39;13.07;;;5.65;;
38557;SDS011;24333;42.626;23.308;2023-04-25T07:58:08;11.93;;;6.35;;
38557;SDS011;24333;42.626;23.308;2023-04-25T08:00:35;11.25;;;6.13;;
38557;SDS011;24333;42.626;23.308;2023-04-25T08:03:01;11.63;;;6.72;;
38557;SDS011;24333;42.626;23.308;2023-04-25T08:05:27;13.25;;;6.13;;
38557;SDS011;24333;42.626;23.308;2023-04-25T08:07:53;11.13;;;5.70;;
38557;SDS011;24333;42.626;23.308;2023-04-25T08:10:19;12.80;;;6.00;;
38557;SDS011;24333;42.626;23.308;2023-04-25T08:12:45;11.27;;;5.18;;
38557;SDS011;24333;42.626;23.308;2023-04-25T08:15:11;14.07;;;6.40;;
38557;SDS011;24333;42.626;23.308;2023-04-25T08:17:38;11.98;;;6.22;;
38557;SDS011;24333;42.626;23.308;2023-04-25T08:20:04;10.60;;;5.53;;
38557;SDS011;24333;42.626;23.308;2023-04-25T09:53:41;7.95;;;2.30;;
38557;SDS011;24333;42.626;23.308;2023-04-25T09:59:15;3.03;;;1.50;;
38557;SDS011;24333;42.626;23.308;2023-04-25T10:01:41;1.83;;;1.20;;
38557;SDS011;24333;42.626;23.308;2023-04-25T10:04:09;2.80;;;1.40;;
38557;SDS011;24333;42.626;23.308;2023-04-25T10:06:36;3.00;;;1.35;;
38557;SDS011;24333;42.626;23.308;2023-04-25T10:09:03;2.70;;;1.25;;
38557;SDS011;24333;42.626;23.308;2023-04-25T10:17:46;3.03;;;1.05;;
38557;SDS011;24333;42.626;23.308;2023-04-25T10:20:13;1.00;;;0.80;;
38557;SDS011;24333;42.626;23.308;2023-04-25T10:22:41;0.52;;;0.50;;
38557;SDS011;24333;42.626;23.308;2023-04-25T10:25:07;3.47;;;0.82;;
38557;SDS011;24333;42.626;23.308;2023-04-25T10:27:38;1.70;;;0.73;;
38557;SDS011;24333;42.626;23.308;2023-04-25T10:30:08;0.95;;;0.65;;
38557;SDS011;24333;42.626;23.308;2023-04-25T10:32:36;0.57;;;0.50;;
38557;SDS011;24333;42.626;23.308;2023-04-25T10:35:18;0.90;;;0.70;;
38557;SDS011;24333;42.626;23.308;2023-04-25T10:38:04;1.10;;;0.50;;
38557;SDS011;24333;42.626;23.308;2023-04-25T10:40:33;1.42;;;0.50;;
38557;SDS011;24333;42.626;23.308;2023-04-25T10:43:33;0.45;;;0.45;;
38557;SDS011;24333;42.626;23.308;2023-04-25T10:45:57;0.88;;;0.50;;
38557;SDS011;24333;42.626;23.308;2023-04-25T10:48:28;0.40;;;0.40;;
38557;SDS011;24333;42.626;23.308;2023-04-25T10:51:29;1.67;;;0.63;;
38557;SDS011;24333;42.626;23.308;2023-04-25T10:56:40;1.38;;;0.50;;
38557;SDS011;24333;42.626;23.308;2023-04-25T10:59:16;1.20;;;0.60;;
38557;SDS011;24333;42.626;23.308;2023-04-25T11:01:46;2.10;;;0.40;;
38557;SDS011;24333;42.626;23.308;2023-04-25T11:04:30;1.77;;;0.80;;
38557;SDS011;24333;42.626;23.308;2023-04-25T11:09:37;1.05;;;0.70;;
38557;SDS011;24333;42.626;23.308;2023-04-25T11:15:07;2.05;;;0.80;;
38557;SDS011;24333;42.626;23.308;2023-04-25T11:17:33;0.55;;;0.50;;
38557;SDS011;24333;42.626;23.308;2023-04-25T11:19:59;2.55;;;0.57;;
38557;SDS011;24333;42.626;23.308;2023-04-25T11:22:38;1.65;;;0.60;;
38557;SDS011;24333;42.626;23.308;2023-04-25T11:25:34;0.70;;;0.40;;
38557;SDS011;24333;42.626;23.308;2023-04-25T11:28:21;3.65;;;1.08;;
38557;SDS011;24333;42.626;23.308;2023-04-25T11:30:50;0.95;;;0.75;;
38557;SDS011;24333;42.626;23.308;2023-04-25T11:33:16;3.55;;;1.02;;
38557;SDS011;24333;42.626;23.308;2023-04-25T11:35:42;0.63;;;0.60;;
38557;SDS011;24333;42.626;23.308;2023-04-25T11:38:07;5.57;;;0.75;;
38557;SDS011;24333;42.626;23.308;2023-04-25T11:40:33;1.40;;;0.70;;
38557;SDS011;24333;42.626;23.308;2023-04-25T11:43:00;0.50;;;0.45;;
38557;SDS011;24333;42.626;23.308;2023-04-25T11:45:26;1.92;;;0.90;;
38557;SDS011;24333;42.626;23.308;2023-04-25T11:47:52;3.58;;;0.90;;
38557;SDS011;24333;42.626;23.308;2023-04-25T11:50:18;2.42;;;0.70;;
38557;SDS011;24333;42.626;23.308;2023-04-25T11:52:45;3.58;;;1.33;;
38557;SDS011;24333;42.626;23.308;2023-04-25T11:58:04;2.83;;;1.30;;
38557;SDS011;24333;42.626;23.308;2023-04-25T12:00:30;0.70;;;0.60;;
38557;SDS011;24333;42.626;23.308;2023-04-25T12:02:56;1.95;;;0.90;;
38557;SDS011;24333;42.626;23.308;2023-04-25T12:05:39;1.13;;;0.82;;
38557;SDS011;24333;42.626;23.308;2023-04-25T12:10:59;0.70;;;0.60;;
38557;SDS011;24333;42.626;23.308;2023-04-25T12:13:25;1.52;;;0.70;;
38557;SDS011;24333;42.626;23.308;2023-04-25T12:15:56;1.90;;;0.70;;
38557;SDS011;24333;42.626;23.308;2023-04-25T12:18:25;0.77;;;0.60;;
38557;SDS011;24333;42.626;23.308;2023-04-25T12:20:53;0.63;;;0.60;;
38557;SDS011;24333;42.626;23.308;2023-04-25T12:23:26;0.50;;;0.47;;
38557;SDS011;24333;42.626;23.308;2023-04-25T12:25:53;0.60;;;0.43;;
38557;SDS011;24333;42.626;23.308;2023-04-25T12:28:19;0.60;;;0.50;;
38557;SDS011;24333;42.626;23.308;2023-04-25T12:30:53;0.95;;;0.52;;
38557;SDS011;24333;42.626;23.308;2023-04-25T12:33:20;9.20;;;3.92;;
38557;SDS011;24333;42.626;23.308;2023-04-25T12:35:46;1.52;;;1.25;;
38557;SDS011;24333;42.626;23.308;2023-04-25T12:38:20;2.72;;;0.60;;
38557;SDS011;24333;42.626;23.308;2023-04-25T12:40:48;0.93;;;0.43;;
38557;SDS011;24333;42.626;23.308;2023-04-25T12:43:13;0.43;;;0.40;;
38557;SDS011;24333;42.626;23.308;2023-04-25T12:45:39;0.90;;;0.50;;
38557;SDS011;24333;42.626;23.308;2023-04-25T12:48:05;0.60;;;0.50;;
38557;SDS011;24333;42.626;23.308;2023-04-25T12:50:30;1.17;;;0.60;;
38557;SDS011;24333;42.626;23.308;2023-04-25T12:52:56;4.60;;;0.80;;
38557;SDS011;24333;42.626;23.308;2023-04-25T12:55:21;1.88;;;0.70;;
38557;SDS011;24333;42.626;23.308;2023-04-25T12:57:47;2.60;;;1.00;;
38557;SDS011;24333;42.626;23.308;2023-04-25T13:00:13;1.10;;;0.60;;
38557;SDS011;24333;42.626;23.308;2023-04-25T13:02:40;1.30;;;0.63;;
38557;SDS011;24333;42.626;23.308;2023-04-25T13:05:06;3.65;;;0.80;;
38557;SDS011;24333;42.626;23.308;2023-04-25T13:07:31;1.08;;;0.70;;
38557;SDS011;24333;42.626;23.308;2023-04-25T13:09:57;3.97;;;0.63;;
38557;SDS011;24333;42.626;23.308;2023-04-25T13:12:22;0.82;;;0.68;;
38557;SDS011;24333;42.626;23.308;2023-04-25T13:14:48;2.15;;;1.00;;
38557;SDS011;24333;42.626;23.308;2023-04-25T13:17:13;1.83;;;0.93;;
38557;SDS011;24333;42.626;23.308;2023-04-25T13:19:38;3.17;;;1.35;;
38557;SDS011;24333;42.626;23.308;2023-04-25T13:22:04;2.53;;;1.35;;
38557;SDS011;24333;42.626;23.308;2023-04-25T13:24:35;2.97;;;1.45;;
38557;SDS011;24333;42.626;23.308;2023-04-25T13:27:01;2.63;;;1.27;;
38557;SDS011;24333;42.626;23.308;2023-04-25T13:29:28;1.50;;;1.10;;
38557;SDS011;24333;42.626;23.308;2023-04-25T13:31:53;1.70;;;1.00;;
38557;SDS011;24333;42.626;23.308;2023-04-25T13:34:32;3.20;;;1.23;;
38557;SDS011;24333;42.626;23.308;2023-04-25T13:42:38;1.13;;;0.85;;
38557;SDS011;24333;42.626;23.308;2023-04-25T13:45:04;1.65;;;1.00;;
38557;SDS011;24333;42.626;23.308;2023-04-25T13:47:30;2.28;;;0.80;;
38557;SDS011;24333;42.626;23.308;2023-04-25T13:49:56;3.17;;;2.10;;
38557;SDS011;24333;42.626;23.308;2023-04-25T13:52:21;3.10;;;1.60;;
38557;SDS011;24333;42.626;23.308;2023-04-25T13:54:49;5.93;;;4.13;;
38557;SDS011;24333;42.626;23.308;2023-04-25T13:57:14;6.22;;;4.38;;
38557;SDS011;24333;42.626;23.308;2023-04-25T13:59:40;2.05;;;1.55;;
38557;SDS011;24333;42.626;23.308;2023-04-25T14:02:06;1.42;;;0.98;;
38557;SDS011;24333;42.626;23.308;2023-04-25T14:04:32;1.10;;;1.00;;
38557;SDS011;24333;42.626;23.308;2023-04-25T14:06:58;0.88;;;0.70;;
38557;SDS011;24333;42.626;23.308;2023-04-25T14:09:23;1.23;;;0.57;;
38557;SDS011;24333;42.626;23.308;2023-04-25T14:11:53;0.40;;;0.40;;
38557;SDS011;24333;42.626;23.308;2023-04-25T14:14:20;0.50;;;0.50;;
38557;SDS011;24333;42.626;23.308;2023-04-25T14:36:15;2.78;;;0.75;;
38557;SDS011;24333;42.626;23.308;2023-04-25T14:44:01;2.00;;;1.10;;
38557;SDS011;24333;42.626;23.308;2023-04-25T14:46:27;3.28;;;1.17;;
38557;SDS011;24333;42.626;23.308;2023-04-25T14:48:53;2.90;;;0.80;;
38557;SDS011;24333;42.626;23.308;2023-04-25T14:51:20;5.22;;;1.60;;
38557;SDS011;24333;42.626;23.308;2023-04-25T14:53:46;3.58;;;1.40;;
38557;SDS011;24333;42.626;23.308;2023-04-25T15:02:21;2.97;;;1.35;;
38557;SDS011;24333;42.626;23.308;2023-04-25T15:04:48;4.38;;;1.33;;
38557;SDS011;24333;42.626;23.308;2023-04-25T15:07:14;3.67;;;1.70;;
38557;SDS011;24333;42.626;23.308;2023-04-25T15:09:40;4.93;;;2.10;;
38557;SDS011;24333;42.626;23.308;2023-04-25T15:12:14;2.17;;;1.00;;
38557;SDS011;24333;42.626;23.308;2023-04-25T15:14:40;2.85;;;1.70;;
38557;SDS011;24333;42.626;23.308;2023-04-25T15:17:05;3.63;;;1.50;;
38557;SDS011;24333;42.626;23.308;2023-04-25T15:19:31;3.88;;;1.52;;
38557;SDS011;24333;42.626;23.308;2023-04-25T15:21:57;5.47;;;2.40;;
38557;SDS011;24333;42.626;23.308;2023-04-25T15:48:08;3.10;;;1.65;;
38557;SDS011;24333;42.626;23.308;2023-04-25T15:50:35;3.53;;;1.73;;
38557;SDS011;24333;42.626;23.308;2023-04-25T15:53:01;3.15;;;1.58;;
38557;SDS011;24333;42.626;23.308;2023-04-25T15:55:29;4.93;;;1.80;;
38557;SDS011;24333;42.626;23.308;2023-04-25T15:57:56;5.05;;;2.40;;
38557;SDS011;24333;42.626;23.308;2023-04-25T16:00:21;3.63;;;2.10;;
38557;SDS011;24333;42.626;23.308;2023-04-25T16:02:47;4.20;;;2.63;;
38557;SDS011;24333;42.626;23.308;2023-04-25T16:05:13;4.13;;;2.42;;
38557;SDS011;24333;42.626;23.308;2023-04-25T16:07:40;3.88;;;2.20;;
38557;SDS011;24333;42.626;23.308;2023-04-25T16:13:03;9.13;;;3.92;;
38557;SDS011;24333;42.626;23.308;2023-04-25T18:06:56;12.07;;;3.70;;
38557;SDS011;24333;42.626;23.308;2023-04-25T18:09:22;3.88;;;1.77;;
38557;SDS011;24333;42.626;23.308;2023-04-25T18:11:52;5.40;;;2.22;;
38557;SDS011;24333;42.626;23.308;2023-04-25T18:14:19;8.63;;;2.30;;
38557;SDS011;24333;42.626;23.308;2023-04-25T18:16:47;6.45;;;2.72;;
38557;SDS011;24333;42.626;23.308;2023-04-25T18:25:01;4.00;;;1.88;;
38557;SDS011;24333;42.626;23.308;2023-04-25T18:27:28;4.00;;;2.40;;
38557;SDS011;24333;42.626;23.308;2023-04-25T18:29:53;4.60;;;2.15;;
38557;SDS011;24333;42.626;23.308;2023-04-25T18:32:19;4.43;;;2.17;;
38557;SDS011;24333;42.626;23.308;2023-04-25T18:34:44;3.45;;;1.50;;
38557;SDS011;24333;42.626;23.308;2023-04-25T18:37:12;4.15;;;1.67;;
38557;SDS011;24333;42.626;23.308;2023-04-25T18:39:41;7.88;;;2.67;;
38557;SDS011;24333;42.626;23.308;2023-04-25T18:42:07;6.22;;;2.25;;
38557;SDS011;24333;42.626;23.308;2023-04-25T18:44:35;4.93;;;1.83;;
38557;SDS011;24333;42.626;23.308;2023-04-25T18:47:07;6.05;;;1.83;;
38557;SDS011;24333;42.626;23.308;2023-04-25T18:55:23;2.63;;;1.67;;
38557;SDS011;24333;42.626;23.308;2023-04-25T18:57:49;3.58;;;1.63;;
38557;SDS011;24333;42.626;23.308;2023-04-25T19:00:15;3.08;;;1.52;;
38557;SDS011;24333;42.626;23.308;2023-04-25T19:02:41;2.92;;;1.80;;
38557;SDS011;24333;42.626;23.308;2023-04-25T19:05:06;6.00;;;2.17;;
38557;SDS011;24333;42.626;23.308;2023-04-25T19:07:38;5.95;;;2.95;;
38557;SDS011;24333;42.626;23.308;2023-04-25T19:10:05;5.50;;;2.78;;
38557;SDS011;24333;42.626;23.308;2023-04-25T19:12:32;6.07;;;2.55;;
38557;SDS011;24333;42.626;23.308;2023-04-25T19:14:58;4.38;;;2.10;;
38557;SDS011;24333;42.626;23.308;2023-04-25T19:20:21;3.80;;;2.00;;
38557;SDS011;24333;42.626;23.308;2023-04-25T19:22:56;3.53;;;2.05;;
38557;SDS011;24333;42.626;23.308;2023-04-25T19:25:21;4.28;;;2.03;;
38557;SDS011;24333;42.626;23.308;2023-04-25T19:27:49;4.78;;;2.42;;
38557;SDS011;24333;42.626;23.308;2023-04-25T19:30:14;3.70;;;2.40;;
38557;SDS011;24333;42.626;23.308;2023-04-25T19:32:40;4.47;;;2.28;;
38557;SDS011;24333;42.626;23.308;2023-04-25T19:35:06;4.47;;;2.10;;
38557;SDS011;24333;42.626;23.308;2023-04-25T19:37:32;8.02;;;3.80;;
38557;SDS011;24333;42.626;23.308;2023-04-25T19:39:58;13.52;;;6.20;;
38557;SDS011;24333;42.626;23.308;2023-04-25T19:42:23;6.60;;;3.22;;
38557;SDS011;24333;42.626;23.308;2023-04-25T19:44:50;3.53;;;2.25;;
38557;SDS011;24333;42.626;23.308;2023-04-25T19:47:16;4.40;;;1.98;;
38557;SDS011;24333;42.626;23.308;2023-04-25T19:49:42;6.47;;;2.05;;
38557;SDS011;24333;42.626;23.308;2023-04-25T19:52:13;3.13;;;1.70;;
38557;SDS011;24333;42.626;23.308;2023-04-25T19:54:40;3.80;;;2.22;;
38557;SDS011;24333;42.626;23.308;2023-04-25T19:57:10;7.47;;;2.72;;
38557;SDS011;24333;42.626;23.308;2023-04-25T19:59:35;7.38;;;3.58;;
38557;SDS011;24333;42.626;23.308;2023-04-25T20:02:14;6.38;;;2.72;;
38557;SDS011;24333;42.626;23.308;2023-04-25T20:04:52;4.45;;;2.30;;
38557;SDS011;24333;42.626;23.308;2023-04-25T20:10:09;5.82;;;2.40;;
38557;SDS011;24333;42.626;23.308;2023-04-25T20:12:38;5.40;;;2.28;;
38557;SDS011;24333;42.626;23.308;2023-04-25T20:15:04;3.92;;;1.60;;
38557;SDS011;24333;42.626;23.308;2023-04-25T20:17:32;6.03;;;1.88;;
38557;SDS011;24333;42.626;23.308;2023-04-25T20:19:58;4.25;;;2.13;;
38557;SDS011;24333;42.626;23.308;2023-04-25T20:22:27;5.95;;;2.70;;
38557;SDS011;24333;42.626;23.308;2023-04-25T20:24:59;3.58;;;2.08;;
38557;SDS011;24333;42.626;23.308;2023-04-25T20:27:26;4.40;;;2.17;;
38557;SDS011;24333;42.626;23.308;2023-04-25T20:29:55;4.13;;;2.08;;
38557;SDS011;24333;42.626;23.308;2023-04-25T20:32:44;5.93;;;2.75;;
38557;SDS011;24333;42.626;23.308;2023-04-25T20:35:13;7.93;;;3.08;;
38557;SDS011;24333;42.626;23.308;2023-04-25T20:40:28;3.28;;;1.90;;
38557;SDS011;24333;42.626;23.308;2023-04-25T20:43:00;2.85;;;1.90;;
38557;SDS011;24333;42.626;23.308;2023-04-25T20:45:26;2.35;;;1.60;;
38557;SDS011;24333;42.626;23.308;2023-04-25T20:51:17;3.13;;;1.88;;
38557;SDS011;24333;42.626;23.308;2023-04-25T20:53:42;3.13;;;1.58;;
38557;SDS011;24333;42.626;23.308;2023-04-25T20:56:08;2.95;;;1.35;;
38557;SDS011;24333;42.626;23.308;2023-04-25T20:58:35;2.22;;;1.05;;
38557;SDS011;24333;42.626;23.308;2023-04-25T21:01:01;3.55;;;1.17;;
38557;SDS011;24333;42.626;23.308;2023-04-25T21:03:27;3.38;;;1.38;;
38557;SDS011;24333;42.626;23.308;2023-04-25T21:05:53;1.85;;;1.00;;
38557;SDS011;24333;42.626;23.308;2023-04-25T21:08:18;3.00;;;1.67;;
38557;SDS011;24333;42.626;23.308;2023-04-25T21:10:44;2.08;;;1.20;;
38557;SDS011;24333;42.626;23.308;2023-04-25T21:13:09;1.90;;;1.08;;
38557;SDS011;24333;42.626;23.308;2023-04-25T21:15:38;2.25;;;1.58;;
38557;SDS011;24333;42.626;23.308;2023-04-25T21:18:03;2.22;;;1.35;;
38557;SDS011;24333;42.626;23.308;2023-04-25T21:20:29;1.77;;;1.40;;
38557;SDS011;24333;42.626;23.308;2023-04-25T22:43:55;6.28;;;3.17;;
38557;SDS011;24333;42.626;23.308;2023-04-25T22:46:22;7.78;;;3.50;;
38557;SDS011;24333;42.626;23.308;2023-04-25T22:48:54;6.97;;;4.00;;
38557;SDS011;24333;42.626;23.308;2023-04-25T22:51:38;5.78;;;3.50;;
38557;SDS011;24333;42.626;23.308;2023-04-25T23:12:16;7.75;;;4.07;;
38557;SDS011;24333;42.626;23.308;2023-04-25T23:23:47;9.80;;;5.05;;
38557;SDS011;24333;42.626;23.308;2023-04-25T23:26:12;9.13;;;4.75;;
38557;SDS011;24333;42.626;23.308;2023-04-25T23:37:34;9.63;;;4.53;;
38557;SDS011;24333;42.626;23.308;2023-04-25T23:40:03;10.25;;;4.53;;
38557;SDS011;24333;42.626;23.308;2023-04-25T23:42:35;8.07;;;4.93;;
